Nearby METAR Reports

This page may be slow to load as it queries the National Weather Service for data.

KBIS - Bismarck, North Dakota, USA
Distance from station: S 10mi, 15km
Updated: Mon, 10-Dec-2018 8:52pm CST
Clear
Clear
 Wind from calm
Wind: Calm
Temperature: 25°F , -4°C
Dew Point: 19°F , -7°C
Humidity: 80%
Barometer: 29.97 inHg , 1014.9 hPa
Clouds: Clear
Visibility: 10 miles , 16 km
2018/12/11 02:52 KBIS 110252Z 00000KT 10SM CLR M04/M07 A2997 RMK AO2 SLP176 T10391067 55005
KDIK - Dickinson, North Dakota, USA
Distance from station: W 95mi, 154km
Updated: Mon, 10-Dec-2018 9:18pm CST
unable to load KDIK data RC=
unable to load KDIK data RC=
 
 
KISN - Williston, North Dakota, USA
Distance from station: NNW 2mi, 2km
Updated: Mon, 10-Dec-2018 8:52pm CST
Clear
Clear
 Wind from calm
Wind: Calm
Temperature: 27°F , -3°C
Dew Point: 19°F , -7°C
Humidity: 74%
Barometer: 29.94 inHg , 1013.9 hPa
Clouds: Clear
Visibility: 10 miles , 16 km
2018/12/11 02:52 KISN 110252Z AUTO 00000KT 10SM CLR M03/M07 A2994 RMK AO2 SLP170 T10281067 51000
KFAR - Fargo, North Dakota, USA
Distance from station: NNW 4mi, 7km
Updated: Mon, 10-Dec-2018 8:53pm CST
Clear
Clear
 Wind from calm
Wind: Calm
Temperature: 16°F , -9°C
Dew Point: 14°F , -10°C
Humidity: 93%
Barometer: 29.99 inHg , 1015.6 hPa
Clouds: Clear
Visibility: 7 miles , 11 km
2018/12/11 02:53 KFAR 110253Z 00000KT 7SM CLR M09/M10 A2999 RMK AO2 SLP172 I1001 I3001 T10891100 58003
 
KGFK - Grand Forks, North Dakota, USA
Distance from station: NNW 76mi, 123km
Updated: Mon, 10-Dec-2018 8:53pm CST
Clear
Clear
 Wind from calm
Wind: Calm
Temperature: 9°F , -13°C
Dew Point: 7°F , -14°C
Humidity: 92%
Barometer: 30.00 inHg , 1015.9 hPa
Clouds: Clear
Visibility: 10 miles , 16 km
2018/12/11 02:53 KGFK 110253Z 00000KT 10SM CLR M13/M14 A3000 RMK AO2 SLP179 I1000 I3000 T11331139 50001
KMOT - Minot, North Dakota, USA
Distance from station: E 109mi, 175km
Updated: Mon, 10-Dec-2018 8:54pm CST
Clear
Clear
 Wind from S
Wind: S 6 mph , 9 km/h
Temperature: 27°F , -3°C
Wind Chill: 20°F , -7°C
Dew Point: 21°F , -6°C
Humidity: 80%
Barometer: 29.92 inHg , 1013.2 hPa
Clouds: Clear
Visibility: 10 miles , 16 km
2018/12/11 02:54 KMOT 110254Z 17005KT 10SM CLR M03/M06 A2992 RMK AO2 SLP159 T10331061 58007